createdAt,value
2022-10-11T00:01:48.783Z,73.16
2022-10-11T00:04:16.135Z,73.23
2022-10-11T00:06:55.536Z,73.50
2022-10-11T00:09:35.476Z,73.69
2022-10-11T00:12:02.931Z,73.41
2022-10-11T00:14:42.637Z,73.48
2022-10-11T00:17:23.782Z,73.14
2022-10-11T00:20:04.402Z,73.26
2022-10-11T00:22:31.637Z,73.10
2022-10-11T00:25:12.590Z,73.77
2022-10-11T00:27:54.708Z,73.71
2022-10-11T00:30:34.957Z,74.21
2022-10-11T00:33:14.709Z,74.25
2022-10-11T00:35:56.168Z,74.27
2022-10-11T00:38:36.280Z,74.70
2022-10-11T00:41:17.145Z,74.81
2022-10-11T00:44:25.573Z,74.47
2022-10-11T00:47:09.211Z,74.42
2022-10-11T00:49:53.945Z,74.46
2022-10-11T00:52:37.977Z,74.40
2022-10-11T00:55:21.157Z,74.73
2022-10-11T00:58:00.102Z,74.53
2022-10-11T01:00:39.505Z,74.72
2022-10-11T01:03:25.433Z,74.75
2022-10-11T01:06:07.794Z,74.90
2022-10-11T01:08:50.323Z,74.11
2022-10-11T01:11:31.354Z,74.51
2022-10-11T01:14:28.004Z,74.48
2022-10-11T01:17:20.182Z,74.79
2022-10-11T01:20:27.382Z,74.42
2022-10-11T01:23:30.473Z,74.28
2022-10-11T01:26:34.469Z,74.67
2022-10-11T01:29:25.528Z,74.02
2022-10-11T01:32:15.410Z,74.26
2022-10-11T01:35:01.816Z,74.66
2022-10-11T01:37:47.192Z,74.58
2022-10-11T01:40:34.197Z,74.48
2022-10-11T01:43:16.263Z,74.79
2022-10-11T01:45:58.365Z,74.58
2022-10-11T01:48:49.214Z,74.86
2022-10-11T01:51:31.894Z,74.47
2022-10-11T01:54:56.652Z,74.70
2022-10-11T01:58:03.611Z,75.82
2022-10-11T02:00:52.505Z,75.25
2022-10-11T02:03:45.477Z,75.53
2022-10-11T02:06:32.851Z,75.22
2022-10-11T02:09:17.256Z,75.25
2022-10-11T02:12:02.437Z,75.57
2022-10-11T02:14:46.176Z,75.57
2022-10-11T02:17:32.259Z,75.57
2022-10-11T02:20:16.391Z,75.63
2022-10-11T02:23:03.984Z,75.10
2022-10-11T02:25:45.766Z,75.52
2022-10-11T02:28:29.969Z,75.11
2022-10-11T02:31:12.157Z,75.12
2022-10-11T02:34:00.320Z,75.71
2022-10-11T02:36:47.508Z,75.22
2022-10-11T02:39:35.788Z,75.00
2022-10-11T02:42:20.543Z,75.34
2022-10-11T02:45:05.916Z,75.59
2022-10-11T02:47:48.000Z,75.45
2022-10-11T02:50:27.933Z,76.10
2022-10-11T02:53:09.043Z,76.02
2022-10-11T02:55:48.521Z,75.64
2022-10-11T02:58:29.530Z,76.04
2022-10-11T03:01:11.195Z,75.58
2022-10-11T03:03:50.905Z,76.00
2022-10-11T03:06:31.169Z,75.67
2022-10-11T03:09:10.299Z,75.59
2022-10-11T03:11:51.744Z,75.46
2022-10-11T03:14:33.091Z,75.97
2022-10-11T03:17:35.203Z,75.37
2022-10-11T03:20:14.182Z,76.09
2022-10-11T03:22:53.328Z,76.03
2022-10-11T03:25:33.147Z,75.74
2022-10-11T03:28:14.792Z,75.52
2022-10-11T03:30:54.399Z,75.43
2022-10-11T03:33:34.405Z,75.94
2022-10-11T03:36:14.033Z,76.51
2022-10-11T03:38:52.382Z,75.94
2022-10-11T03:41:32.436Z,76.09
2022-10-11T03:44:11.839Z,76.22
2022-10-11T03:46:51.640Z,76.28
2022-10-11T03:49:33.105Z,76.23
2022-10-11T03:52:12.745Z,76.99
2022-10-11T03:54:52.966Z,76.46
2022-10-11T03:57:34.112Z,76.72
2022-10-11T04:00:14.359Z,76.97
2022-10-11T04:02:55.280Z,76.76
2022-10-11T04:05:35.294Z,77.61
2022-10-11T04:08:21.159Z,76.94
2022-10-11T04:11:01.259Z,77.06
2022-10-11T04:13:53.132Z,76.51
2022-10-11T04:16:32.646Z,76.13
2022-10-11T04:19:14.100Z,76.40
2022-10-11T04:21:53.895Z,76.52
2022-10-11T04:24:34.122Z,76.54
2022-10-11T04:27:40.325Z,76.37
2022-10-11T04:30:18.799Z,76.57
2022-10-11T04:32:59.361Z,76.13
2022-10-11T04:35:40.748Z,76.27
2022-10-11T04:38:22.712Z,76.57
2022-10-11T04:41:08.789Z,76.97
2022-10-11T04:43:48.619Z,76.13
2022-10-11T04:46:28.217Z,76.66
2022-10-11T04:49:06.359Z,76.62
2022-10-11T04:51:45.916Z,76.28
2022-10-11T04:54:24.461Z,76.14
2022-10-11T04:57:04.218Z,76.17
2022-10-11T04:59:45.521Z,75.88
2022-10-11T05:02:30.008Z,75.03
2022-10-11T05:05:10.385Z,74.83
2022-10-11T05:07:49.636Z,74.58
2022-10-11T05:10:32.674Z,74.36
2022-10-11T05:13:12.403Z,74.08
2022-10-11T05:15:54.087Z,74.02
2022-10-11T05:18:32.336Z,73.71
2022-10-11T05:21:16.148Z,73.59
2022-10-11T05:23:57.305Z,73.39
2022-10-11T05:26:37.930Z,73.35
2022-10-11T05:29:17.783Z,73.13
2022-10-11T05:31:59.134Z,72.89
2022-10-11T05:34:39.291Z,72.59
2022-10-11T05:37:17.218Z,72.33
2022-10-11T05:39:57.122Z,72.29
2022-10-11T05:42:37.048Z,71.87
2022-10-11T05:45:15.113Z,71.71
2022-10-11T05:47:53.545Z,71.52
2022-10-11T05:50:35.045Z,71.17
2022-10-11T05:53:16.348Z,70.96
2022-10-11T05:55:56.452Z,70.79
2022-10-11T05:58:35.499Z,70.75
2022-10-11T06:01:22.012Z,70.43
2022-10-11T06:04:00.184Z,70.33
2022-10-11T06:06:41.565Z,69.55
2022-10-11T06:09:19.860Z,69.40
2022-10-11T06:11:59.353Z,69.19
2022-10-11T06:14:52.929Z,69.02
2022-10-11T06:17:53.248Z,68.66
2022-10-11T06:20:32.328Z,68.32
2022-10-11T06:23:29.535Z,68.40
2022-10-11T06:26:27.754Z,68.04
2022-10-11T06:29:05.737Z,67.87
2022-10-11T06:32:10.301Z,67.27
2022-10-11T06:34:49.285Z,67.21
2022-10-11T06:37:27.500Z,66.62
2022-10-11T06:40:24.525Z,66.51
2022-10-11T06:43:03.109Z,65.49
2022-10-11T06:45:42.888Z,65.37
2022-10-11T06:48:21.021Z,65.28
2022-10-11T06:51:21.912Z,64.45
2022-10-11T06:54:02.200Z,64.54
2022-10-11T06:56:41.313Z,63.83
2022-10-11T06:59:20.004Z,63.64
2022-10-11T07:02:48.059Z,63.39
2022-10-11T07:05:42.752Z,62.83
2022-10-11T07:08:21.879Z,62.04
2022-10-11T07:11:04.441Z,61.86
2022-10-11T07:13:50.264Z,61.55
2022-10-11T07:16:29.506Z,60.97
2022-10-11T07:19:30.269Z,60.95
2022-10-11T07:22:10.756Z,60.57
2022-10-11T07:25:09.841Z,60.14
2022-10-11T07:28:12.897Z,59.63
2022-10-11T07:31:09.938Z,58.37
2022-10-11T07:34:09.847Z,58.85
2022-10-11T07:36:48.752Z,59.38
2022-10-11T07:39:42.046Z,58.54
2022-10-11T07:42:36.551Z,58.63
2022-10-11T07:45:34.294Z,58.60
2022-10-11T07:48:12.784Z,58.13
2022-10-11T07:51:12.385Z,57.34
2022-10-11T07:54:10.246Z,57.59
2022-10-11T07:56:49.067Z,57.10
2022-10-11T07:59:27.467Z,56.46
2022-10-11T08:02:08.888Z,55.72
2022-10-11T08:05:02.901Z,55.39
2022-10-11T08:08:16.461Z,54.72
2022-10-11T08:11:19.250Z,53.61
2022-10-11T08:14:18.392Z,53.09
2022-10-11T08:16:57.236Z,52.66
2022-10-11T08:19:35.466Z,52.26
2022-10-11T08:22:44.422Z,50.95
2022-10-11T08:25:43.922Z,51.06
2022-10-11T08:28:44.148Z,50.72
2022-10-11T08:31:45.970Z,50.64
2022-10-11T08:34:24.194Z,50.12
2022-10-11T08:37:02.238Z,49.75
2022-10-11T08:39:40.892Z,49.55
2022-10-11T08:42:29.415Z,49.39
2022-10-11T08:45:11.017Z,49.59
2022-10-11T08:47:43.164Z,49.35
2022-10-11T08:50:17.681Z,49.68
2022-10-11T08:52:53.880Z,49.58
2022-10-11T08:55:29.687Z,49.06
2022-10-11T08:57:59.617Z,48.45
2022-10-11T09:00:32.795Z,47.83
2022-10-11T09:03:08.974Z,47.55
2022-10-11T09:05:59.376Z,46.96
2022-10-11T09:08:44.857Z,46.67
2022-10-11T09:11:20.329Z,46.50
2022-10-11T09:14:20.829Z,46.64
2022-10-11T09:16:58.792Z,46.54
2022-10-11T09:19:42.601Z,46.16
2022-10-11T09:22:17.437Z,45.56
2022-10-11T09:25:12.298Z,45.12
2022-10-11T09:28:01.700Z,44.90
2022-10-11T09:30:32.158Z,44.73
2022-10-11T09:33:12.144Z,44.45
2022-10-11T09:35:42.735Z,44.01
2022-10-11T09:38:18.891Z,43.53
2022-10-11T09:40:58.854Z,42.86
2022-10-11T09:43:26.071Z,43.07
2022-10-11T09:45:54.741Z,43.00
2022-10-11T09:48:25.426Z,42.72
2022-10-11T09:50:58.686Z,42.56
2022-10-11T09:53:50.691Z,42.08
2022-10-11T09:56:18.135Z,41.82
2022-10-11T09:58:45.590Z,41.52
2022-10-11T10:01:24.428Z,41.28
2022-10-11T10:04:07.392Z,40.99
2022-10-11T10:06:35.561Z,40.46
2022-10-11T10:09:35.806Z,40.10
2022-10-11T10:12:12.459Z,39.50
2022-10-11T10:14:41.491Z,39.30
2022-10-11T10:17:17.362Z,39.59
2022-10-11T10:19:50.541Z,39.35
2022-10-11T10:22:20.521Z,39.38
2022-10-11T10:24:49.281Z,39.20
2022-10-11T10:27:21.272Z,38.80
2022-10-11T10:30:13.666Z,38.59
2022-10-11T10:32:48.954Z,38.59
2022-10-11T10:35:27.552Z,38.72
2022-10-11T10:38:05.732Z,38.83
2022-10-11T10:40:40.785Z,38.65
2022-10-11T10:43:15.761Z,38.14
2022-10-11T10:46:10.010Z,37.75
2022-10-11T10:49:23.173Z,37.94
2022-10-11T10:51:44.306Z,37.82
2022-10-11T10:54:18.259Z,37.94
2022-10-11T10:56:51.290Z,38.14
2022-10-11T10:59:36.731Z,37.83
2022-10-11T11:02:39.268Z,38.30
2022-10-11T11:05:11.901Z,38.15
2022-10-11T11:07:46.278Z,37.93
2022-10-11T11:10:18.620Z,38.15
2022-10-11T11:12:53.616Z,37.94
2022-10-11T11:15:32.516Z,37.71
2022-10-11T11:18:17.255Z,37.92
2022-10-11T11:20:59.819Z,37.60
2022-10-11T11:23:37.478Z,38.15
2022-10-11T11:26:14.598Z,38.46
2022-10-11T11:28:58.056Z,38.35
2022-10-11T11:31:41.301Z,38.11
2022-10-11T11:34:20.776Z,37.98
2022-10-11T11:36:54.742Z,37.71
2022-10-11T11:39:25.408Z,37.66
2022-10-11T11:41:58.015Z,37.76
2022-10-11T11:44:30.267Z,37.95
2022-10-11T11:47:02.570Z,37.74
2022-10-11T11:49:35.007Z,37.75
2022-10-11T11:52:05.734Z,37.91
2022-10-11T11:54:44.652Z,37.67
2022-10-11T11:57:22.134Z,37.50
2022-10-11T11:59:57.030Z,36.71
2022-10-11T12:02:43.836Z,36.18
2022-10-11T12:05:14.028Z,36.13
2022-10-11T12:07:55.846Z,36.16
2022-10-11T12:10:31.359Z,36.00
2022-10-11T12:13:07.164Z,35.76
2022-10-11T12:15:34.676Z,36.13
2022-10-11T12:18:06.099Z,35.92
2022-10-11T12:20:40.980Z,36.22
2022-10-11T12:23:44.965Z,36.25
2022-10-11T12:26:37.531Z,35.99
2022-10-11T12:29:42.822Z,36.11
2022-10-11T12:32:50.332Z,36.07
2022-10-11T12:35:56.451Z,36.13
2022-10-11T12:38:25.800Z,36.33
2022-10-11T12:40:57.140Z,36.32
2022-10-11T12:43:35.874Z,36.07
2022-10-11T12:46:39.419Z,36.48
2022-10-11T12:49:38.420Z,35.96
2022-10-11T12:52:37.950Z,35.86
2022-10-11T12:55:23.691Z,35.94
2022-10-11T12:58:29.772Z,35.83
2022-10-11T13:01:10.622Z,35.63
2022-10-11T13:03:40.903Z,35.66
2022-10-11T13:06:15.927Z,35.67
2022-10-11T13:08:45.308Z,35.42
2022-10-11T13:11:19.880Z,35.15
2022-10-11T13:13:53.999Z,35.28
2022-10-11T13:16:24.961Z,35.29
2022-10-11T13:18:57.487Z,35.62
2022-10-11T13:21:29.566Z,35.96
2022-10-11T13:23:59.310Z,36.05
2022-10-11T13:26:28.018Z,36.07
2022-10-11T13:28:57.200Z,36.28
2022-10-11T13:31:25.432Z,36.47
2022-10-11T13:33:57.681Z,36.83
2022-10-11T13:36:27.163Z,37.18
2022-10-11T13:38:56.696Z,37.42
2022-10-11T13:41:26.280Z,37.56
2022-10-11T13:43:54.835Z,37.98
2022-10-11T13:46:25.370Z,37.94
2022-10-11T13:49:00.465Z,38.00
2022-10-11T13:51:32.567Z,38.00
2022-10-11T13:54:02.682Z,38.31
2022-10-11T13:56:32.908Z,38.38
2022-10-11T13:59:01.543Z,38.69
2022-10-11T14:01:39.705Z,39.06
2022-10-11T14:04:09.445Z,39.11
2022-10-11T14:06:46.372Z,39.29
2022-10-11T14:09:20.629Z,39.59
2022-10-11T14:11:48.369Z,39.53
2022-10-11T14:14:41.197Z,39.48
2022-10-11T14:17:16.013Z,39.71
2022-10-11T14:19:44.460Z,39.83
2022-10-11T14:22:16.718Z,40.09
2022-10-11T14:24:46.611Z,40.38
2022-10-11T14:27:19.403Z,40.49
2022-10-11T14:30:06.149Z,40.74
2022-10-11T14:32:36.567Z,40.70
2022-10-11T14:35:04.154Z,41.00
2022-10-11T14:37:31.505Z,41.24
2022-10-11T14:39:58.693Z,41.38
2022-10-11T14:42:25.861Z,41.61
2022-10-11T14:44:53.044Z,42.04
2022-10-11T14:47:20.565Z,42.39
2022-10-11T14:49:49.123Z,42.47
2022-10-11T14:52:16.365Z,42.53
2022-10-11T14:54:43.696Z,43.13
2022-10-11T14:57:12.198Z,43.19
2022-10-11T14:59:40.121Z,43.72
2022-10-11T15:02:11.293Z,43.83
2022-10-11T15:04:38.488Z,44.23
2022-10-11T15:07:07.441Z,44.58
2022-10-11T15:09:34.625Z,44.97
2022-10-11T15:12:02.072Z,45.31
2022-10-11T15:14:29.339Z,45.77
2022-10-11T15:16:57.460Z,45.91
2022-10-11T15:19:25.623Z,46.24
2022-10-11T15:21:53.178Z,45.93
2022-10-11T15:24:22.108Z,46.53
2022-10-11T15:26:58.276Z,46.79
2022-10-11T15:29:28.655Z,46.59
2022-10-11T15:31:56.233Z,47.08
2022-10-11T15:34:23.517Z,47.22
2022-10-11T15:36:51.386Z,47.53
2022-10-11T15:39:28.715Z,47.88
2022-10-11T15:41:57.367Z,48.07
2022-10-11T15:44:24.734Z,48.59
2022-10-11T15:46:51.975Z,48.96
2022-10-11T15:49:19.236Z,49.51
2022-10-11T15:51:46.458Z,49.39
2022-10-11T15:54:13.664Z,49.71
2022-10-11T15:56:43.227Z,50.59
2022-10-11T15:59:11.743Z,50.81
2022-10-11T16:01:39.764Z,51.01
2022-10-11T16:04:06.991Z,51.43
2022-10-11T16:06:34.208Z,51.28
2022-10-11T16:09:01.369Z,51.71
2022-10-11T16:11:28.637Z,51.71
2022-10-11T16:13:57.448Z,52.19
2022-10-11T16:16:24.675Z,52.71
2022-10-11T16:18:51.922Z,53.03
2022-10-11T16:21:24.073Z,53.11
2022-10-11T16:23:51.483Z,53.18
2022-10-11T16:26:18.752Z,53.25
2022-10-11T16:28:47.768Z,53.28
2022-10-11T16:31:20.775Z,53.35
2022-10-11T16:33:48.266Z,53.74
2022-10-11T16:36:35.206Z,53.99
2022-10-11T16:39:05.576Z,54.24
2022-10-11T16:41:32.895Z,54.35
2022-10-11T16:44:00.335Z,54.84
2022-10-11T16:46:29.107Z,54.99
2022-10-11T16:48:56.509Z,55.01
2022-10-11T16:51:26.978Z,55.32
2022-10-11T16:53:54.233Z,55.49
2022-10-11T16:56:22.834Z,55.55
2022-10-11T16:58:50.616Z,55.72
2022-10-11T17:01:18.416Z,56.13
2022-10-11T17:03:48.636Z,56.12
2022-10-11T17:06:15.772Z,56.37
2022-10-11T17:08:42.980Z,56.33
2022-10-11T17:11:10.202Z,56.88
2022-10-11T17:13:37.453Z,56.84
2022-10-11T17:16:05.425Z,56.86
2022-10-11T17:18:32.884Z,57.27
2022-10-11T17:21:06.567Z,57.49
2022-10-11T17:23:35.689Z,57.51
2022-10-11T17:26:10.051Z,57.60
2022-10-11T17:28:39.015Z,57.45
2022-10-11T17:31:08.006Z,57.67
2022-10-11T17:33:35.947Z,57.48
2022-10-11T17:36:14.147Z,57.68
2022-10-11T17:38:41.324Z,57.65
2022-10-11T17:41:09.442Z,57.66
2022-10-11T17:43:38.159Z,57.80
2022-10-11T17:46:06.900Z,58.04
2022-10-11T17:48:36.771Z,58.20
2022-10-11T17:51:10.110Z,58.08
2022-10-11T17:53:38.060Z,58.50
2022-10-11T17:56:06.697Z,58.66
2022-10-11T17:58:34.261Z,58.61
2022-10-11T18:01:11.700Z,58.76
2022-10-11T18:03:40.014Z,58.89
2022-10-11T18:06:11.406Z,59.26
2022-10-11T18:08:40.849Z,59.10
2022-10-11T18:11:10.631Z,59.39
2022-10-11T18:13:37.958Z,59.65
2022-10-11T18:16:05.990Z,59.70
2022-10-11T18:18:33.721Z,60.27
2022-10-11T18:21:01.453Z,60.41
2022-10-11T18:23:32.964Z,60.27
2022-10-11T18:26:08.642Z,60.52
2022-10-11T18:28:36.954Z,60.65
2022-10-11T18:31:11.686Z,60.53
2022-10-11T18:33:40.017Z,60.60
2022-10-11T18:36:18.933Z,60.81
2022-10-11T18:38:49.234Z,60.93
2022-10-11T18:41:18.856Z,60.98
2022-10-11T18:43:49.334Z,60.80
2022-10-11T18:46:16.919Z,61.09
2022-10-11T18:48:45.670Z,61.20
2022-10-11T18:51:15.483Z,61.74
2022-10-11T18:53:42.856Z,61.62
2022-10-11T18:56:13.045Z,61.84
2022-10-11T18:58:41.894Z,61.93
2022-10-11T19:01:12.024Z,62.07
2022-10-11T19:03:39.503Z,62.10
2022-10-11T19:06:16.777Z,62.45
2022-10-11T19:08:43.984Z,62.35
2022-10-11T19:11:13.704Z,62.43
2022-10-11T19:13:41.064Z,62.96
2022-10-11T19:16:11.706Z,63.29
2022-10-11T19:18:43.914Z,63.22
2022-10-11T19:21:12.994Z,63.28
2022-10-11T19:23:42.305Z,63.03
2022-10-11T19:26:15.185Z,63.23
2022-10-11T19:28:43.370Z,63.15
2022-10-11T19:31:13.179Z,63.60
2022-10-11T19:33:40.584Z,63.62
2022-10-11T19:36:15.520Z,63.81
2022-10-11T19:38:45.214Z,63.68
2022-10-11T19:41:14.774Z,63.79
2022-10-11T19:43:41.990Z,63.53
2022-10-11T19:46:11.406Z,63.69
2022-10-11T19:48:39.816Z,63.97
2022-10-11T19:51:09.125Z,63.71
2022-10-11T19:53:36.821Z,63.66
2022-10-11T19:56:05.954Z,64.20
2022-10-11T19:58:34.987Z,64.04
2022-10-11T20:01:04.863Z,64.62
2022-10-11T20:03:32.540Z,64.45
2022-10-11T20:06:00.627Z,64.93
2022-10-11T20:08:31.417Z,65.27
2022-10-11T20:10:59.104Z,64.76
2022-10-11T20:13:29.935Z,65.85
2022-10-11T20:16:02.608Z,65.74
2022-10-11T20:18:30.654Z,66.24
2022-10-11T20:21:00.507Z,65.80
2022-10-11T20:23:28.273Z,65.45
2022-10-11T20:26:00.070Z,65.62
2022-10-11T20:28:28.829Z,66.16
2022-10-11T20:30:56.058Z,65.87
2022-10-11T20:33:25.092Z,65.49
2022-10-11T20:35:59.649Z,65.71
2022-10-11T20:38:28.038Z,65.24
2022-10-11T20:40:55.512Z,65.55
2022-10-11T20:43:23.366Z,65.99
2022-10-11T20:46:02.002Z,66.03
2022-10-11T20:48:31.747Z,66.50
2022-10-11T20:50:58.986Z,66.69
2022-10-11T20:53:27.651Z,66.43
2022-10-11T20:55:55.475Z,66.95
2022-10-11T20:58:23.522Z,67.06
2022-10-11T21:00:50.928Z,67.64
2022-10-11T21:03:18.721Z,67.08
2022-10-11T21:05:47.358Z,67.42
2022-10-11T21:08:14.665Z,67.05
2022-10-11T21:10:51.767Z,66.93
2022-10-11T21:13:19.160Z,67.08
2022-10-11T21:15:46.384Z,67.45
2022-10-11T21:18:13.982Z,67.08
2022-10-11T21:20:42.220Z,67.25
2022-10-11T21:23:13.260Z,67.59
2022-10-11T21:25:41.163Z,67.02
2022-10-11T21:28:08.591Z,67.38
2022-10-11T21:30:36.136Z,67.05
2022-10-11T21:33:03.436Z,67.26
2022-10-11T21:35:31.357Z,67.70
2022-10-11T21:37:59.851Z,68.06
2022-10-11T21:40:28.533Z,68.64
2022-10-11T21:42:55.785Z,68.54
2022-10-11T21:45:23.028Z,68.82
2022-10-11T21:47:50.204Z,68.61
2022-10-11T21:50:17.660Z,68.40
2022-10-11T21:52:44.846Z,68.96
2022-10-11T21:55:12.172Z,69.47
2022-10-11T21:57:42.985Z,69.77
2022-10-11T22:00:11.901Z,70.17
2022-10-11T22:02:41.908Z,69.78
2022-10-11T22:05:09.129Z,70.16
2022-10-11T22:07:36.389Z,69.17
2022-10-11T22:10:04.031Z,70.16
2022-10-11T22:12:31.239Z,70.17
2022-10-11T22:14:59.839Z,70.67
2022-10-11T22:17:27.034Z,69.73
2022-10-11T22:19:54.544Z,70.10
2022-10-11T22:22:21.727Z,69.44
2022-10-11T22:24:49.018Z,70.21
2022-10-11T22:27:16.404Z,69.67
2022-10-11T22:29:43.679Z,69.85
2022-10-11T22:32:12.464Z,70.78
2022-10-11T22:34:39.741Z,70.05
2022-10-11T22:37:06.982Z,69.72
2022-10-11T22:39:34.160Z,69.64
2022-10-11T22:42:01.402Z,70.75
2022-10-11T22:44:28.692Z,71.07
2022-10-11T22:46:55.984Z,71.04
2022-10-11T22:49:24.556Z,70.47
2022-10-11T22:51:51.749Z,70.17
2022-10-11T22:54:19.074Z,70.52
2022-10-11T22:56:46.275Z,70.50
2022-10-11T22:59:13.439Z,71.08
2022-10-11T23:01:40.958Z,70.58
2022-10-11T23:04:08.262Z,70.68
2022-10-11T23:06:36.902Z,70.91
2022-10-11T23:09:04.371Z,71.04
2022-10-11T23:11:31.666Z,71.27
2022-10-11T23:13:58.886Z,72.12
2022-10-11T23:16:26.084Z,71.13
2022-10-11T23:18:53.576Z,71.76
2022-10-11T23:21:21.239Z,71.64
2022-10-11T23:23:52.923Z,71.92
2022-10-11T23:26:20.828Z,71.00
2022-10-11T23:28:48.120Z,71.90
2022-10-11T23:31:17.677Z,72.18
2022-10-11T23:33:45.837Z,72.09
2022-10-11T23:36:16.808Z,71.56
2022-10-11T23:38:44.009Z,71.74
2022-10-11T23:41:12.663Z,71.92
2022-10-11T23:43:39.840Z,71.57
2022-10-11T23:46:06.986Z,72.10
2022-10-11T23:48:34.117Z,71.36
2022-10-11T23:51:01.341Z,71.91
2022-10-11T23:53:28.563Z,72.10
2022-10-11T23:55:55.876Z,72.08
2022-10-11T23:58:24.544Z,72.48
